Time;durP1;ratioP1;P1;durP2;ratioP2;P2;SDS_P1;SDS_P2;PMS_P1;PMS_P2;Temp;Humidity;BMP_temperature;BMP_pressure;BME280_temperature;BME280_humidity;BME280_pressure;Samples;Min_cycle;Max_cycle;Signal;HPM_P1;HPM_P2
2021/07/05 00:00:42;;;;;;;18.47;16.53;;;;;;;15.64;74.11;98298.23;124779;1093;64303;-80
2021/07/05 00:03:21;;;;;;;20.40;17.03;;;;;;;15.58;74.58;98293.44;124838;1093;64281;-79
2021/07/05 00:05:47;;;;;;;18.85;16.50;;;;;;;15.52;74.68;98294.05;124785;1093;64289;-79
2021/07/05 00:08:14;;;;;;;17.07;15.27;;;;;;;15.45;74.68;98298.33;124745;1093;64299;-80
2021/07/05 00:10:41;;;;;;;18.07;15.80;;;;;;;15.42;74.57;98298.64;124816;1093;64283;-80
2021/07/05 00:13:07;;;;;;;17.40;15.50;;;;;;;15.39;74.77;98296.27;124775;1093;64640;-80
2021/07/05 00:15:34;;;;;;;19.13;15.80;;;;;;;15.31;75.00;98295.16;124784;1093;64386;-79
2021/07/05 00:18:05;;;;;;;18.47;16.43;;;;;;;15.29;75.25;98298.98;124775;1093;64390;-79
2021/07/05 00:20:34;;;;;;;18.83;16.70;;;;;;;15.22;75.07;98293.39;124793;1093;64267;-79
2021/07/05 00:23:01;;;;;;;19.37;17.27;;;;;;;15.11;75.31;98289.07;124830;1093;64306;-79
2021/07/05 00:25:28;;;;;;;18.10;14.93;;;;;;;15.06;75.42;98288.66;124844;1093;64390;-80
2021/07/05 00:27:54;;;;;;;19.40;17.37;;;;;;;15.03;75.48;98290.78;124820;1093;64286;-79
2021/07/05 00:30:22;;;;;;;21.00;18.80;;;;;;;15.02;76.05;98289.94;124821;1093;64315;-79
2021/07/05 00:32:50;;;;;;;20.83;16.90;;;;;;;14.98;76.10;98295.75;124892;1092;64367;-79
2021/07/05 00:35:18;;;;;;;17.53;15.57;;;;;;;15.02;76.34;98297.16;125194;1093;64264;-79
2021/07/05 00:37:45;;;;;;;19.63;15.90;;;;;;;15.05;76.79;98289.64;125255;1093;64290;-80
2021/07/05 00:40:14;;;;;;;18.50;16.57;;;;;;;15.07;76.86;98293.03;124874;1093;64404;-80
2021/07/05 00:42:41;;;;;;;20.10;17.90;;;;;;;15.12;77.15;98303.33;125063;1092;64378;-80
2021/07/05 00:45:10;;;;;;;18.67;16.63;;;;;;;15.18;77.70;98297.35;124934;1093;64431;-80
2021/07/05 00:47:38;;;;;;;20.13;18.03;;;;;;;15.17;78.16;98292.99;124920;1093;64275;-80
2021/07/05 00:50:07;;;;;;;17.83;15.23;;;;;;;15.11;78.23;98298.93;124846;1093;64285;-80
2021/07/05 00:52:35;;;;;;;19.03;17.00;;;;;;;15.06;78.41;98309.27;124913;1093;64309;-80
2021/07/05 00:55:05;;;;;;;19.67;17.67;;;;;;;15.01;78.03;98308.86;124843;1093;64322;-80
2021/07/05 00:57:32;;;;;;;18.33;16.53;;;;;;;15.01;78.17;98306.17;124935;1093;64297;-80
2021/07/05 00:59:59;;;;;;;20.20;17.20;;;;;;;15.08;78.40;98308.13;124812;1092;64274;-80
2021/07/05 01:02:27;;;;;;;19.90;17.80;;;;;;;15.14;78.49;98306.71;124890;1094;64281;-80
2021/07/05 01:04:53;;;;;;;18.00;16.20;;;;;;;15.14;78.40;98301.34;124881;1093;64184;-80
2021/07/05 01:07:22;;;;;;;19.67;16.07;;;;;;;15.09;77.87;98303.63;124883;1093;64337;-80
2021/07/05 01:09:51;;;;;;;17.13;15.47;;;;;;;15.04;77.97;98304.06;124895;1093;64357;-80
2021/07/05 01:12:17;;;;;;;19.50;17.50;;;;;;;15.00;78.29;98305.34;124921;1092;64287;-80
2021/07/05 01:14:44;;;;;;;20.03;17.80;;;;;;;15.00;78.41;98296.45;124864;1093;64284;-80
2021/07/05 01:17:13;;;;;;;22.37;17.70;;;;;;;15.00;78.10;98299.13;124848;1093;64270;-80
2021/07/05 01:19:45;;;;;;;18.70;16.77;;;;;;;14.99;78.38;98305.50;124881;1093;64284;-80
2021/07/05 01:22:13;;;;;;;19.90;18.00;;;;;;;14.94;78.36;98311.30;124950;1093;64350;-80
2021/07/05 01:24:41;;;;;;;19.70;17.60;;;;;;;14.90;78.16;98317.94;124933;1093;64279;-81
2021/07/05 01:27:09;;;;;;;18.85;17.00;;;;;;;14.84;78.34;98300.59;124965;1093;64647;-80
2021/07/05 01:29:38;;;;;;;19.17;17.00;;;;;;;14.85;78.50;98306.80;124880;1093;64299;-80
2021/07/05 01:32:05;;;;;;;21.40;19.10;;;;;;;14.86;78.76;98308.52;124859;1092;64295;-80
2021/07/05 01:34:32;;;;;;;23.57;20.77;;;;;;;14.78;78.89;98306.56;124962;1093;64225;-80
2021/07/05 01:36:59;;;;;;;19.37;17.37;;;;;;;14.80;78.92;98311.80;124965;1093;64268;-80
2021/07/05 01:39:26;;;;;;;19.15;17.05;;;;;;;14.84;79.28;98318.53;124868;1092;64232;-80
2021/07/05 01:41:53;;;;;;;19.63;17.00;;;;;;;14.85;79.28;98317.53;124873;1093;64284;-80
2021/07/05 01:44:20;;;;;;;19.53;17.43;;;;;;;14.88;79.48;98309.22;124861;1093;64283;-80
2021/07/05 01:46:47;;;;;;;20.03;18.03;;;;;;;14.93;79.74;98307.78;124874;1093;64187;-80
2021/07/05 01:49:13;;;;;;;19.50;17.43;;;;;;;14.88;79.09;98310.06;124884;1093;64309;-80
2021/07/05 01:51:40;;;;;;;19.97;17.83;;;;;;;14.84;79.35;98319.38;124841;1093;64273;-80
2021/07/05 01:54:12;;;;;;;19.70;17.83;;;;;;;14.81;79.15;98316.16;124891;1093;64210;-80
2021/07/05 01:56:38;;;;;;;18.97;17.17;;;;;;;14.66;79.13;98316.60;124868;1093;64316;-80
2021/07/05 01:59:05;;;;;;;18.67;16.80;;;;;;;14.58;79.31;98313.80;124847;1093;64418;-80
2021/07/05 02:01:31;;;;;;;19.40;16.85;;;;;;;14.58;79.34;98315.64;124816;1092;64267;-80
2021/07/05 02:03:58;;;;;;;19.13;17.23;;;;;;;14.56;79.67;98312.25;124849;1093;64329;-80
2021/07/05 02:06:25;;;;;;;17.83;15.93;;;;;;;14.63;79.62;98313.38;124833;1092;64329;-80
2021/07/05 02:08:52;;;;;;;17.47;15.70;;;;;;;14.62;79.68;98322.42;124862;1093;64245;-80
2021/07/05 02:11:19;;;;;;;18.47;16.60;;;;;;;14.62;79.63;98325.94;124858;1093;64346;-80
2021/07/05 02:13:46;;;;;;;17.83;15.87;;;;;;;14.64;79.54;98336.50;124878;1092;64207;-80
2021/07/05 02:16:13;;;;;;;19.35;17.25;;;;;;;14.54;79.38;98330.34;124879;1092;64287;-80
2021/07/05 02:18:40;;;;;;;19.90;17.90;;;;;;;14.46;79.25;98331.87;124859;1093;64296;-80
2021/07/05 02:21:08;;;;;;;22.07;19.43;;;;;;;14.43;79.36;98328.64;124880;1093;64284;-80
2021/07/05 02:23:36;;;;;;;22.70;20.27;;;;;;;14.41;79.44;98322.57;124827;1093;64242;-79
2021/07/05 02:26:05;;;;;;;22.70;18.80;;;;;;;14.46;79.75;98317.63;124828;1093;64207;-80
2021/07/05 02:28:35;;;;;;;21.63;19.25;;;;;;;14.46;79.63;98322.98;124892;1092;64188;-80
2021/07/05 02:31:03;;;;;;;;;;;;;;;14.43;79.67;98323.28;124841;1093;64281;-80
2021/07/05 02:33:34;;;;;;;20.20;18.03;;;;;;;14.40;79.58;98319.05;124758;1092;64328;-80
2021/07/05 02:36:04;;;;;;;19.45;17.35;;;;;;;14.42;79.83;98321.56;124798;1093;64411;-79
2021/07/05 02:38:34;;;;;;;22.03;18.00;;;;;;;14.43;79.71;98325.96;124885;1093;64264;-81
2021/07/05 02:41:03;;;;;;;21.18;18.95;;;;;;;14.42;79.82;98325.09;124883;1093;64271;-79
2021/07/05 02:43:29;;;;;;;19.10;17.17;;;;;;;14.43;79.83;98334.00;124895;1093;64280;-78
2021/07/05 02:45:57;;;;;;;21.40;19.27;;;;;;;14.47;79.97;98327.34;124856;1092;64466;-80
2021/07/05 02:48:28;;;;;;;20.70;18.43;;;;;;;14.47;79.79;98333.55;124793;1092;64369;-79
2021/07/05 02:50:58;;;;;;;21.23;19.03;;;;;;;14.41;79.58;98331.45;124787;1092;64389;-80
2021/07/05 02:53:25;;;;;;;21.47;19.17;;;;;;;14.36;79.84;98340.91;124887;1093;64191;-79
2021/07/05 02:55:53;;;;;;;21.07;18.73;;;;;;;14.35;80.28;98339.20;124893;1093;64294;-79
2021/07/05 02:58:19;;;;;;;20.47;18.43;;;;;;;14.41;80.36;98339.49;124889;1093;64271;-80
2021/07/05 03:00:50;;;;;;;19.87;17.77;;;;;;;14.50;80.45;98332.42;124854;1093;64293;-79
2021/07/05 03:03:17;;;;;;;19.77;17.67;;;;;;;14.61;80.20;98339.48;124899;1093;64274;-80
2021/07/05 03:05:43;;;;;;;20.23;18.10;;;;;;;14.74;80.42;98339.17;124887;1093;64281;-80
2021/07/05 03:08:11;;;;;;;20.00;17.90;;;;;;;14.88;80.04;98336.05;124858;1093;64287;-82
2021/07/05 03:10:39;;;;;;;19.47;17.37;;;;;;;14.99;80.07;98345.75;124826;1093;64419;-80
2021/07/05 03:13:11;;;;;;;20.50;18.30;;;;;;;15.06;79.97;98334.29;124901;1093;64295;-79
2021/07/05 03:15:39;;;;;;;20.25;18.10;;;;;;;15.15;79.67;98341.44;124794;1093;64268;-79
2021/07/05 03:18:07;;;;;;;21.37;18.53;;;;;;;15.25;79.61;98338.72;124800;1093;64284;-80
2021/07/05 03:20:38;;;;;;;19.93;17.93;;;;;;;15.28;79.40;98345.63;124839;1093;64267;-80
2021/07/05 03:23:06;;;;;;;19.47;17.57;;;;;;;15.32;79.34;98339.83;124861;1093;64284;-80
2021/07/05 03:25:35;;;;;;;18.40;16.53;;;;;;;15.40;79.27;98343.58;124878;1093;64532;-80
2021/07/05 03:28:03;;;;;;;17.47;15.43;;;;;;;15.44;78.94;98340.45;124871;1093;64290;-80
2021/07/05 03:30:31;;;;;;;18.00;16.17;;;;;;;15.99;78.52;98344.95;124883;1093;64164;-80
2021/07/05 03:32:58;;;;;;;16.90;15.40;;;;;;;16.91;77.17;98340.17;124868;1094;64370;-80
2021/07/05 03:35:25;;;;;;;17.13;15.37;;;;;;;17.69;75.75;98331.91;124894;1093;64309;-80
2021/07/05 03:37:52;;;;;;;19.30;15.90;;;;;;;18.49;74.53;98326.00;124859;1092;64281;-80
2021/07/05 03:40:23;;;;;;;16.87;15.37;;;;;;;19.19;73.14;98328.06;124862;1093;64283;-80
2021/07/05 03:42:53;;;;;;;16.07;14.53;;;;;;;19.77;72.02;98325.98;124905;1093;64322;-80
2021/07/05 03:45:22;;;;;;;17.03;15.43;;;;;;;19.48;72.39;98322.04;124892;1093;64274;-81
2021/07/05 03:47:50;;;;;;;16.33;14.75;;;;;;;19.03;72.34;98326.26;124861;1093;64274;-80
2021/07/05 03:50:18;;;;;;;17.17;15.57;;;;;;;19.68;71.11;98328.73;124763;1093;64316;-80
2021/07/05 03:52:46;;;;;;;16.03;14.63;;;;;;;20.49;69.65;98337.33;124814;1093;64309;-80
2021/07/05 03:55:16;;;;;;;15.93;14.27;;;;;;;21.15;68.56;98331.30;124849;1093;64268;-79
2021/07/05 03:57:43;;;;;;;16.50;14.90;;;;;;;21.90;67.77;98341.88;124848;1093;64325;-79
2021/07/05 04:00:13;;;;;;;19.75;17.75;;;;;;;22.51;66.35;98327.08;124864;1093;64415;-79
2021/07/05 04:02:40;;;;;;;17.90;16.07;;;;;;;23.16;64.95;98334.08;124825;1092;64293;-80
2021/07/05 04:05:07;;;;;;;17.03;15.47;;;;;;;23.55;63.54;98334.52;124831;1093;64185;-80
2021/07/05 04:07:34;;;;;;;17.47;15.73;;;;;;;23.88;62.04;98340.97;124764;1094;64270;-80
2021/07/05 04:10:02;;;;;;;15.57;14.17;;;;;;;24.18;61.45;98353.41;124781;1093;64241;-80
2021/07/05 04:12:29;;;;;;;16.00;14.67;;;;;;;24.48;60.25;98349.28;124848;1093;64422;-80
2021/07/05 04:14:55;;;;;;;15.30;13.77;;;;;;;24.77;59.29;98355.38;124797;1093;64394;-80
2021/07/05 04:17:22;;;;;;;15.30;14.10;;;;;;;25.12;58.46;98353.28;124780;1093;64267;-80
2021/07/05 04:19:48;;;;;;;13.53;12.43;;;;;;;25.37;57.76;98355.35;124774;1093;64191;-80
2021/07/05 04:22:17;;;;;;;14.23;13.03;;;;;;;25.40;57.25;98361.20;124826;1093;64277;-80
2021/07/05 04:24:45;;;;;;;13.87;12.80;;;;;;;25.61;56.64;98359.27;124870;1092;64338;-80
2021/07/05 04:27:14;;;;;;;12.73;11.73;;;;;;;25.70;55.67;98362.59;124954;1093;64814;-80
2021/07/05 04:29:41;;;;;;;12.30;11.13;;;;;;;25.88;55.31;98361.92;124934;1093;64273;-80
2021/07/05 04:32:09;;;;;;;11.87;10.77;;;;;;;26.12;55.03;98353.00;124947;1092;64293;-80
2021/07/05 04:34:36;;;;;;;12.43;11.33;;;;;;;26.16;54.28;98373.34;124917;1093;64274;-80
2021/07/05 04:37:03;;;;;;;11.95;10.95;;;;;;;26.38;53.31;98362.91;124876;1093;64293;-80
2021/07/05 04:39:29;;;;;;;10.87;9.97;;;;;;;26.54;52.97;98361.60;124948;1093;64262;-79
2021/07/05 04:41:56;;;;;;;11.57;10.53;;;;;;;26.71;52.38;98359.16;124837;1093;64293;-79
2021/07/05 04:44:23;;;;;;;11.63;10.57;;;;;;;26.87;51.70;98364.06;124846;1093;64271;-79
2021/07/05 04:46:51;;;;;;;11.70;10.60;;;;;;;27.02;51.10;98368.38;124760;1093;64334;-80
2021/07/05 04:49:19;;;;;;;12.20;10.97;;;;;;;27.13;50.70;98368.46;124839;1093;64290;-79
2021/07/05 04:51:46;;;;;;;11.35;10.30;;;;;;;27.30;50.20;98360.52;124898;1093;64241;-79
2021/07/05 04:54:13;;;;;;;12.20;11.00;;;;;;;27.40;49.20;98361.92;124837;1092;64286;-79
2021/07/05 04:56:41;;;;;;;11.23;10.23;;;;;;;27.40;49.31;98360.02;124842;1093;64194;-80
2021/07/05 04:59:08;;;;;;;11.55;10.45;;;;;;;27.44;49.05;98355.78;124912;1093;64380;-80
2021/07/05 05:01:35;;;;;;;10.37;9.57;;;;;;;27.41;48.20;98349.90;124870;1093;64323;-80
2021/07/05 05:04:02;;;;;;;10.70;9.70;;;;;;;27.48;48.58;98359.71;124849;1093;64306;-79
2021/07/05 05:06:29;;;;;;;10.63;9.73;;;;;;;27.70;47.88;98353.78;124771;1093;64245;-80
2021/07/05 05:08:55;;;;;;;10.47;8.93;;;;;;;27.86;47.45;98352.34;124810;1092;64281;-80
2021/07/05 05:11:22;;;;;;;9.87;9.07;;;;;;;27.92;47.53;98355.02;124774;1093;64265;-80
2021/07/05 05:13:49;;;;;;;10.10;9.20;;;;;;;28.07;46.73;98353.77;124810;1093;64319;-80
2021/07/05 05:16:16;;;;;;;10.33;9.10;;;;;;;28.34;46.85;98355.08;124806;1092;64856;-80
2021/07/05 05:18:44;;;;;;;9.63;8.93;;;;;;;28.43;46.35;98358.31;124774;1093;64188;-80
2021/07/05 05:21:11;;;;;;;10.27;9.47;;;;;;;28.52;46.08;98361.61;124843;1093;64290;-80
2021/07/05 05:23:38;;;;;;;9.63;8.73;;;;;;;28.76;45.52;98357.84;124843;1093;64191;-80
2021/07/05 05:26:05;;;;;;;9.70;8.67;;;;;;;28.72;45.23;98351.14;124929;1092;64284;-80
2021/07/05 05:28:32;;;;;;;9.47;8.60;;;;;;;28.83;45.17;98349.49;124756;1093;64341;-80
2021/07/05 05:30:58;;;;;;;9.43;8.80;;;;;;;28.89;45.05;98348.56;124875;1092;64217;-80
2021/07/05 05:33:25;;;;;;;9.15;8.35;;;;;;;28.88;44.62;98350.48;124957;1093;64264;-84
2021/07/05 05:35:51;;;;;;;9.17;8.37;;;;;;;29.04;44.76;98348.97;124980;1093;64188;-84
2021/07/05 05:38:18;;;;;;;9.63;8.63;;;;;;;29.20;44.02;98346.56;125004;1093;64274;-79
2021/07/05 05:40:45;;;;;;;9.80;8.70;;;;;;;29.36;44.00;98348.61;124860;1093;64422;-81
2021/07/05 05:43:11;;;;;;;9.53;8.63;;;;;;;29.43;42.96;98346.55;124882;1093;64286;-79
2021/07/05 05:45:38;;;;;;;8.93;8.23;;;;;;;29.46;42.87;98347.98;124885;1093;64267;-80
2021/07/05 05:48:06;;;;;;;8.80;8.10;;;;;;;29.54;42.66;98348.46;124873;1093;64286;-79
2021/07/05 05:50:33;;;;;;;9.00;8.30;;;;;;;29.59;43.15;98346.89;124937;1093;64345;-79
2021/07/05 05:53:00;;;;;;;8.80;7.90;;;;;;;29.62;42.56;98347.26;124879;1093;64338;-79
2021/07/05 05:55:26;;;;;;;9.00;8.13;;;;;;;29.54;41.77;98353.95;124803;1093;64349;-80
2021/07/05 05:57:53;;;;;;;9.67;8.87;;;;;;;29.38;41.76;98354.66;124827;1092;64220;-80
2021/07/05 06:00:25;;;;;;;10.07;9.07;;;;;;;29.12;42.14;98361.47;124788;1092;64293;-80
2021/07/05 06:02:54;;;;;;;9.43;8.60;;;;;;;29.03;42.44;98358.22;124861;1092;64265;-80
2021/07/05 06:05:22;;;;;;;9.00;8.10;;;;;;;29.07;42.80;98356.72;124939;1093;64213;-80
2021/07/05 06:07:50;;;;;;;9.87;8.97;;;;;;;29.10;42.95;98361.73;124881;1093;64354;-80
2021/07/05 06:10:21;;;;;;;10.33;9.03;;;;;;;29.38;42.16;98351.09;124893;1093;64312;-80
2021/07/05 06:12:49;;;;;;;10.00;9.00;;;;;;;29.37;42.52;98352.18;124893;1092;64268;-78
2021/07/05 06:15:19;;;;;;;10.37;9.20;;;;;;;29.48;42.01;98359.56;124780;1093;64293;-80
2021/07/05 06:17:47;;;;;;;8.80;8.10;;;;;;;29.57;41.34;98349.89;124906;1093;64274;-80
2021/07/05 06:20:14;;;;;;;8.87;7.70;;;;;;;29.53;41.50;98351.44;124890;1093;64348;-78
2021/07/05 06:23:19;;;;;;;8.95;8.15;;;;;;;29.56;41.37;98352.86;124840;1093;64185;-79
2021/07/05 06:25:34;;;;;;;9.53;8.03;;;;;;;29.75;41.46;98348.91;124843;1093;64287;-79
2021/07/05 06:28:00;;;;;;;9.35;8.45;;;;;;;29.77;41.07;98351.42;124796;1093;64220;-81
2021/07/05 06:30:27;;;;;;;9.53;7.73;;;;;;;29.73;41.09;98351.91;124852;1093;64309;-81
2021/07/05 06:32:54;;;;;;;8.07;7.47;;;;;;;29.76;41.61;98356.09;124798;1093;64257;-79
2021/07/05 06:35:20;;;;;;;8.10;7.50;;;;;;;29.93;41.90;98350.66;124801;1093;64293;-81
2021/07/05 06:37:47;;;;;;;7.57;6.97;;;;;;;30.16;41.06;98361.56;124788;1093;64272;-80
2021/07/05 06:40:14;;;;;;;8.53;7.83;;;;;;;30.15;41.28;98367.33;124758;1093;64188;-80
2021/07/05 06:42:40;;;;;;;8.47;7.87;;;;;;;30.09;40.80;98366.36;124788;1093;64306;-80
2021/07/05 06:45:07;;;;;;;7.80;7.23;;;;;;;29.84;40.81;98368.61;124801;1093;64287;-80
2021/07/05 06:47:33;;;;;;;8.67;7.87;;;;;;;29.69;41.16;98372.69;124939;1092;64267;-80
2021/07/05 06:50:00;;;;;;;7.87;7.33;;;;;;;29.63;41.18;98376.38;124972;1093;64284;-79
2021/07/05 06:52:32;;;;;;;8.57;7.70;;;;;;;29.55;41.34;98374.00;124816;1093;64324;-80
2021/07/05 06:55:01;;;;;;;7.83;7.13;;;;;;;29.80;41.59;98375.66;124924;1093;64309;-81
2021/07/05 06:57:30;;;;;;;7.70;7.10;;;;;;;29.88;41.05;98372.53;124895;1093;64198;-81
2021/07/05 06:59:58;;;;;;;8.67;7.90;;;;;;;30.00;41.42;98372.51;124829;1093;64309;-78
2021/07/05 07:02:26;;;;;;;8.05;7.35;;;;;;;30.08;41.18;98372.13;124881;1092;64268;-81
2021/07/05 07:04:53;;;;;;;9.97;9.00;;;;;;;29.84;41.21;98377.69;124820;1093;64383;-81
2021/07/05 07:07:19;;;;;;;10.00;9.00;;;;;;;29.65;41.54;98370.66;124940;1093;64891;-79
2021/07/05 07:09:46;;;;;;;10.77;8.53;;;;;;;29.86;40.88;98380.17;124917;1091;64283;-80
2021/07/05 07:12:13;;;;;;;10.10;9.10;;;;;;;29.88;40.85;98380.77;124893;1093;64318;-80
2021/07/05 07:14:40;;;;;;;9.87;8.97;;;;;;;30.10;40.54;98370.80;124868;1093;64239;-79
2021/07/05 07:17:11;;;;;;;10.00;8.70;;;;;;;30.28;40.47;98372.56;124855;1093;64193;-79
2021/07/05 07:19:37;;;;;;;8.07;7.27;;;;;;;30.44;40.35;98375.57;124902;1093;64327;-80
2021/07/05 07:22:04;;;;;;;8.15;7.40;;;;;;;30.37;40.49;98375.73;124876;1093;64291;-80
2021/07/05 07:24:32;;;;;;;7.80;7.00;;;;;;;30.26;40.45;98371.13;124873;1093;64596;-80
2021/07/05 07:27:00;;;;;;;8.60;7.70;;;;;;;30.24;39.79;98365.87;124892;1093;64193;-80
2021/07/05 07:29:27;;;;;;;8.77;8.07;;;;;;;30.04;39.99;98371.75;124843;1092;64766;-80
2021/07/05 07:31:54;;;;;;;9.13;8.30;;;;;;;29.78;39.95;98373.17;124867;1093;64309;-80
2021/07/05 07:34:22;;;;;;;8.33;7.40;;;;;;;29.66;40.83;98364.11;124877;1093;64373;-80
2021/07/05 07:36:48;;;;;;;9.10;8.40;;;;;;;29.54;41.46;98370.43;124897;1092;64274;-80
2021/07/05 07:39:24;;;;;;;9.25;8.00;;;;;;;29.41;42.48;98356.09;124851;1093;64187;-80
2021/07/05 07:41:53;;;;;;;8.27;7.50;;;;;;;29.37;42.39;98346.69;124861;1093;64849;-80
2021/07/05 07:44:20;;;;;;;8.60;7.80;;;;;;;29.29;42.17;98356.12;124866;1093;64338;-80
2021/07/05 07:46:47;;;;;;;9.00;8.20;;;;;;;29.23;42.00;98349.68;124869;1093;64316;-80
2021/07/05 07:49:13;;;;;;;7.93;7.30;;;;;;;29.11;42.43;98354.33;124876;1093;64184;-80
2021/07/05 07:51:40;;;;;;;8.53;7.73;;;;;;;28.87;42.87;98343.30;124885;1093;64363;-80
2021/07/05 07:54:07;;;;;;;8.90;8.03;;;;;;;28.78;43.03;98342.00;124836;1093;64350;-79
2021/07/05 07:56:35;;;;;;;8.03;7.40;;;;;;;28.74;42.67;98346.27;124809;1093;64357;-79
2021/07/05 07:59:02;;;;;;;8.67;7.77;;;;;;;28.69;43.31;98340.66;124803;1093;64318;-79
2021/07/05 08:01:29;;;;;;;8.40;7.70;;;;;;;28.68;43.37;98341.73;124853;1093;64299;-80
2021/07/05 08:03:56;;;;;;;9.03;8.13;;;;;;;28.78;43.24;98330.16;124772;1092;64280;-80
2021/07/05 08:06:23;;;;;;;7.53;6.93;;;;;;;28.79;43.85;98343.66;124770;1093;64374;-79
2021/07/05 08:08:52;;;;;;;7.93;7.27;;;;;;;28.78;43.36;98336.51;124795;1093;64364;-79
2021/07/05 08:11:20;;;;;;;7.57;6.77;;;;;;;28.79;43.60;98342.83;124901;1093;64351;-80
2021/07/05 08:13:47;;;;;;;10.43;6.63;;;;;;;28.57;43.56;98339.78;124914;1093;64268;-80
2021/07/05 08:16:15;;;;;;;8.10;7.40;;;;;;;28.40;43.81;98337.69;124876;1092;64376;-80
2021/07/05 08:18:42;;;;;;;9.37;7.03;;;;;;;28.37;44.40;98343.64;124896;1093;64723;-80
2021/07/05 08:21:08;;;;;;;7.00;6.50;;;;;;;28.31;43.29;98341.85;124881;1093;64325;-80
2021/07/05 08:23:35;;;;;;;6.83;6.23;;;;;;;28.29;43.40;98348.63;124891;1093;64271;-80
2021/07/05 08:26:03;;;;;;;7.27;6.57;;;;;;;28.37;43.22;98342.81;124856;1093;64236;-80
2021/07/05 08:28:30;;;;;;;6.90;6.20;;;;;;;28.36;43.43;98344.73;124891;1093;64309;-80
2021/07/05 08:30:57;;;;;;;6.20;5.70;;;;;;;28.55;42.86;98337.30;124839;1093;64311;-80
2021/07/05 08:33:24;;;;;;;6.70;6.13;;;;;;;28.55;42.27;98348.27;124916;1093;64356;-80
2021/07/05 08:35:51;;;;;;;6.47;5.87;;;;;;;28.54;42.81;98351.22;124895;1093;64238;-80
2021/07/05 08:38:17;;;;;;;7.13;6.47;;;;;;;28.57;42.19;98353.49;124826;1093;64167;-80
2021/07/05 08:40:44;;;;;;;5.47;5.00;;;;;;;28.73;42.31;98343.78;124889;1093;64264;-80
2021/07/05 08:43:12;;;;;;;5.70;5.30;;;;;;;28.80;41.00;98341.74;124786;1093;64348;-79
2021/07/05 08:45:40;;;;;;;4.93;4.53;;;;;;;28.75;39.55;98333.38;124772;1093;64312;-80
2021/07/05 08:48:08;;;;;;;6.90;4.57;;;;;;;28.61;38.52;98336.34;124783;1093;64277;-80
2021/07/05 08:50:34;;;;;;;6.80;6.07;;;;;;;28.56;39.47;98335.38;124780;1093;64363;-80
2021/07/05 08:53:01;;;;;;;5.70;5.30;;;;;;;28.66;39.43;98335.64;124815;1093;64284;-80
2021/07/05 08:55:29;;;;;;;4.80;4.35;;;;;;;28.80;39.29;98339.00;124768;1093;64274;-80
2021/07/05 08:57:56;;;;;;;5.70;5.20;;;;;;;28.75;38.73;98333.38;124791;1093;64335;-80
2021/07/05 09:00:28;;;;;;;5.47;5.00;;;;;;;28.69;38.99;98335.17;124830;1093;64200;-80
2021/07/05 09:02:57;;;;;;;8.10;5.00;;;;;;;28.73;38.68;98336.38;124839;1093;64309;-80
2021/07/05 09:05:24;;;;;;;6.07;5.47;;;;;;;28.78;38.99;98339.25;124776;1093;64347;-80
2021/07/05 09:08:06;;;;;;;6.53;5.20;;;;;;;28.86;38.49;98343.56;124753;1093;64216;-80
2021/07/05 09:10:39;;;;;;;6.27;5.63;;;;;;;28.94;36.99;98350.57;124788;1093;64284;-79
2021/07/05 09:13:18;;;;;;;5.65;5.15;;;;;;;29.00;37.82;98344.16;124792;1093;64216;-79
2021/07/05 09:15:57;;;;;;;5.33;4.85;;;;;;;29.18;37.05;98345.98;124758;1093;64306;-79
2021/07/05 09:18:33;;;;;;;;;;;;;;;29.08;36.72;98349.31;124900;1093;64267;-79
2021/07/05 09:21:16;;;;;;;5.33;4.93;;;;;;;29.09;37.85;98350.98;124856;1093;64271;-80
2021/07/05 09:23:46;;;;;;;5.67;5.17;;;;;;;29.30;37.70;98344.88;124824;1093;64331;-79
2021/07/05 09:26:23;;;;;;;5.03;4.63;;;;;;;29.38;37.73;98335.45;124912;1093;64260;-80
2021/07/05 09:28:52;;;;;;;5.73;5.33;;;;;;;29.43;37.70;98341.05;124827;1093;64384;-80
2021/07/05 09:31:46;;;;;;;5.30;4.90;;;;;;;29.50;37.59;98335.45;124915;1093;64264;-80
2021/07/05 09:34:20;;;;;;;7.00;6.20;;;;;;;29.61;36.88;98345.56;124833;1093;64310;-80
2021/07/05 09:36:50;;;;;;;7.20;6.60;;;;;;;29.66;37.19;98340.22;124833;1091;64281;-80
2021/07/05 09:39:21;;;;;;;5.37;4.97;;;;;;;29.67;36.37;98335.55;124866;1093;64271;-80
2021/07/05 09:41:50;;;;;;;6.37;5.87;;;;;;;29.60;35.71;98341.16;124839;1093;64187;-80
2021/07/05 09:44:20;;;;;;;6.00;5.57;;;;;;;29.57;36.41;98340.80;124920;1092;64380;-80
2021/07/05 09:46:47;;;;;;;6.17;5.47;;;;;;;29.63;37.52;98337.10;124822;1093;66116;-80
2021/07/05 09:49:24;;;;;;;7.57;6.87;;;;;;;29.75;37.62;98338.78;124778;1093;64300;-80
2021/07/05 09:52:25;;;;;;;6.03;5.53;;;;;;;29.95;37.32;98335.59;124829;1093;64284;-79
2021/07/05 09:55:16;;;;;;;5.63;5.23;;;;;;;30.12;37.67;98340.30;124790;1093;64313;-80
2021/07/05 09:57:51;;;;;;;5.30;4.90;;;;;;;30.31;37.61;98336.33;124789;1093;64273;-80
2021/07/05 10:00:27;;;;;;;5.93;5.50;;;;;;;30.52;36.59;98336.70;124832;1093;64752;-79
2021/07/05 10:03:00;;;;;;;5.73;5.23;;;;;;;30.39;36.59;98340.59;124873;1093;64267;-80
2021/07/05 10:05:35;;;;;;;7.20;5.43;;;;;;;30.22;36.77;98342.42;124834;1093;64305;-79
2021/07/05 10:08:08;;;;;;;5.97;5.37;;;;;;;30.17;37.14;98335.73;124777;1093;64297;-80
2021/07/05 10:10:38;;;;;;;6.27;5.10;;;;;;;30.29;36.86;98343.98;124793;1093;64284;-80
2021/07/05 10:13:16;;;;;;;6.10;5.50;;;;;;;30.18;35.59;98340.17;124810;1093;64380;-80
2021/07/05 10:15:46;;;;;;;5.98;5.50;;;;;;;30.25;36.77;98341.95;124922;1093;64258;-80
2021/07/05 10:18:13;;;;;;;6.83;5.83;;;;;;;30.32;36.42;98337.15;124876;1093;64210;-80
2021/07/05 10:20:42;;;;;;;6.63;6.10;;;;;;;30.43;36.37;98344.50;124849;1093;64276;-80
2021/07/05 10:23:13;;;;;;;6.43;5.83;;;;;;;30.39;35.60;98330.42;124902;1092;64274;-79
2021/07/05 10:25:43;;;;;;;6.33;5.83;;;;;;;30.47;36.02;98336.61;124902;1093;64244;-80
2021/07/05 10:28:11;;;;;;;6.87;6.27;;;;;;;30.39;35.61;98340.59;124885;1093;64347;-79
2021/07/05 10:30:38;;;;;;;6.20;5.70;;;;;;;30.18;35.16;98337.42;124792;1093;64274;-80
2021/07/05 10:33:05;;;;;;;6.70;6.10;;;;;;;30.15;36.36;98340.67;124808;1093;64303;-80
2021/07/05 10:35:40;;;;;;;6.83;6.33;;;;;;;30.32;36.89;98339.90;124782;1093;64392;-79
2021/07/05 10:38:30;;;;;;;6.93;6.43;;;;;;;30.45;37.15;98339.59;124789;1093;64293;-80
2021/07/05 10:41:12;;;;;;;10.60;6.33;;;;;;;30.71;37.67;98332.62;124800;1093;64421;-79
2021/07/05 10:44:09;;;;;;;7.03;6.27;;;;;;;30.81;37.11;98329.24;124765;1093;64268;-80
2021/07/05 10:46:39;;;;;;;6.77;6.03;;;;;;;30.91;36.89;98334.06;124850;1093;64265;-80
2021/07/05 10:49:08;;;;;;;9.50;8.55;;;;;;;30.93;37.44;98332.72;124899;1092;64286;-80
2021/07/05 10:51:44;;;;;;;7.05;6.55;;;;;;;31.13;37.37;98337.72;124931;1093;64248;-80
2021/07/05 10:54:12;;;;;;;6.53;6.03;;;;;;;31.34;37.02;98332.52;124926;1093;64438;-79
2021/07/05 10:56:44;;;;;;;7.17;5.90;;;;;;;31.46;36.21;98334.08;124763;1093;64260;-79
2021/07/05 10:59:11;;;;;;;6.20;5.57;;;;;;;31.55;35.29;98331.74;124799;1093;64190;-79
2021/07/05 11:01:46;;;;;;;6.40;5.73;;;;;;;31.49;35.56;98329.98;124777;1093;64287;-80
2021/07/05 11:04:30;;;;;;;7.03;6.10;;;;;;;31.51;34.87;98333.33;124779;1093;64191;-80
2021/07/05 11:07:11;;;;;;;7.17;6.67;;;;;;;31.48;34.40;98333.84;124823;1093;64300;-79
2021/07/05 11:09:57;;;;;;;6.37;5.77;;;;;;;31.43;34.88;98331.84;124897;1093;64245;-80
2021/07/05 11:12:34;;;;;;;10.23;6.60;;;;;;;31.38;35.55;98323.51;124918;1093;64226;-80
2021/07/05 11:15:01;;;;;;;6.45;5.75;;;;;;;31.23;35.11;98337.05;124866;1093;64272;-79
2021/07/05 11:17:29;;;;;;;5.77;5.27;;;;;;;31.14;35.09;98338.55;124870;1093;64268;-79
2021/07/05 11:20:10;;;;;;;6.73;6.13;;;;;;;31.02;34.80;98333.98;124796;1093;64280;-80
2021/07/05 11:22:38;;;;;;;6.70;6.00;;;;;;;30.94;35.08;98341.80;124859;1093;64329;-80
2021/07/05 11:25:17;;;;;;;6.47;5.87;;;;;;;30.81;35.23;98340.25;124869;1093;64265;-78
2021/07/05 11:27:50;;;;;;;10.00;6.07;;;;;;;30.78;35.40;98338.80;124778;1093;64271;-79